Meteo Giornale » Osservazioni meteo Kazakhstan » Kzyl-Orda
ore: 15:30 - Osservazioni Meteo Kzyl-Orda
Lat. 44° 51' N Lon. 65° 30' E Alt. 129 metri s.l.m.
25 °C
Sereno
Temp. 24 Ore
6 °C
25 °C
Nord-Est
25.2 Km/h
Dew point -6 °C
Umidità 12 %
Visibilità 10 Km
Il sole sorge alle ore 06:00
Il sole tramonta alle ore 19:16
| Data e Ora | Cielo e Fenomeni | T °C | DP °C | Um. % | Pres. hPa | Vis. km | Vento km/h | |
|---|---|---|---|---|---|---|---|---|
| Oggi h: 15:30 | Sereno | 25 | -6 | 12 | 1018 | 10 | NE 25.2 | |
| Oggi h: 15:00 | Sereno | 25 | -5 | 13 | 1019 | 10 | NE 21.6 | |
| Oggi h: 14:30 | Sereno | 25 | -5 | 13 | 1019 | 10 | NE 25.2 | |
| Oggi h: 14:00 | Sereno | 24 | -6 | 13 | 1019 | 10 | E/NE 25.2 | |
| Oggi h: 13:30 | Sereno | 24 | -5 | 14 | 1019 | 10 | NE 25.2 | |
| Oggi h: 13:00 | Sereno | 24 | -5 | 14 | 1019 | 10 | NE 21.6 | |
| Oggi h: 12:30 | Sereno | 23 | -5 | 14 | 1019 | 10 | NE 28.8 | |
| Oggi h: 12:00 | Sereno | 23 | -4 | 16 | 1020 | 10 | E/NE 28.8 | |
| Oggi h: 11:30 | Sereno | 22 | -4 | 17 | 1020 | 10 | NE 25.2 | |
| Oggi h: 11:00 | Sereno | 23 | -4 | 16 | 1020 | 10 | E/NE 25.2 | |
| Oggi h: 10:30 | Sereno | 21 | -4 | 18 | 1020 | 10 | E 28.8 | |
| Oggi h: 10:00 | Sereno | 20 | -3 | 20 | 1020 | 10 | E/NE 21.6 | |
| Oggi h: 09:30 | Sereno | 19 | -3 | 22 | 1020 | 10 | E/NE 18 | |
| Oggi h: 09:00 | Sereno | 18 | -2 | 25 | 1020 | 10 | E/NE 18 | |
| Oggi h: 08:30 | Sereno | 15 | -3 | 28 | 1020 | 10 | NE 14.4 | |
| Oggi h: 08:00 | Sereno | 13 | -3 | 32 | 1020 | 10 | NE 14.4 | |
| Oggi h: 07:30 | Sereno | 12 | -3 | 34 | 1020 | 10 | NE 10.8 | |
| Oggi h: 07:00 | Sereno | 9 | -4 | 39 | 1019 | 10 | NE 10.8 | |
| Oggi h: 06:30 | Sereno | 7 | -4 | 45 | 1019 | 10 | N/NE 14.4 | |
| Oggi h: 06:00 | Sereno | 6 | -4 | 48 | 1019 | 10 | N/NE 10.8 | |
| Oggi h: 05:00 | Sereno | 8 | -5 | 39 | 1019 | 10 | N/NE 10.8 | |
| Oggi h: 04:00 | Sereno | 9 | -4 | 39 | 1019 | 10 | N/NE 18 | |
| Oggi h: 03:00 | Sereno | 11 | -4 | 34 | 1019 | 10 | N/NE 18 | |
| Oggi h: 02:00 | Sereno | 12 | -4 | 32 | 1019 | 10 | N/NE 14.4 | |
| Oggi h: 01:00 | Sereno | 12 | -4 | 32 | 1019 | 10 | N/NE 18 | |
| Oggi h: 00:00 | Sereno | 12 | -3 | 34 | 1019 | 10 | N/NE 14.4 | |
| Ieri h: 23:00 | Sereno | 13 | -2 | 35 | 1019 | 10 | N/NE 14.4 | |
| Ieri h: 22:00 | Sereno | 14 | -1 | 35 | 1019 | 10 | N/NE 14.4 | |
| Ieri h: 21:00 | Sereno | 16 | -1 | 31 | 1019 | 10 | N/NE 10.8 | |
| Ieri h: 20:30 | Sereno | 17 | -1 | 29 | 1019 | 10 | N 10.8 | |
| Ieri h: 20:00 | Sereno | 17 | -2 | 27 | 1018 | 10 | N 10.8 | |
| Ieri h: 19:30 | Sereno | 19 | -2 | 24 | 1018 | 10 | N/NE 10.8 | |
| Ieri h: 19:00 | Sereno | 21 | -3 | 19 | 1018 | 10 | N/NE 14.4 | |
| Ieri h: 18:30 | Sereno | 22 | -4 | 17 | 1017 | 10 | N/NE 21.6 | |
| Ieri h: 18:00 | Sereno | 23 | -3 | 17 | 1017 | 10 | N/NE 18 | |
| Ieri h: 17:30 | Sereno | 24 | -4 | 15 | 1017 | 10 | NE 21.6 | |
| Ieri h: 17:00 | Sereno | 24 | -4 | 15 | 1017 | 10 | N 21.6 | |
| Ieri h: 16:30 | Sereno | 24 | -3 | 16 | 1017 | 10 | N/NE 21.6 | |
| Ieri h: 16:00 | Sereno | 24 | -3 | 16 | 1017 | 10 | N/NE 25.2 | |



